Share

Klodzko, Poland

9:52 PM CEST on April 24, 2014 (GMT +0200)
IKRALOVE6 Elev 990 ft | 50.36 °N, 16.12 °E | Change Station

Current weather conditions updated 10 seconds ago

Partly Cloudy
Partly Cloudy
55.2 °F
Feels Like 55.2 °F
N
7.0
Wind Variable Wind from North
Gusts 15.0 mph
Sunrise 5:42 AM
Sunset 8:02 PM
Moon Waning Crescent

Tomorrow is forecast to be Cooler than today. Light rain and fog tomorrow night.

Pressure 30.06 in
Visibility 6.2 miles
Clouds Few 3300 ft
Dew Point 50 °F
Humidity 82%
Rainfall 0.00 in
Snow Depth Not available.
UV 0 out of 16
Pollen Not available.
Air Quality Not available.
Flu Activity Not available.
METAR EPWR 241930Z 34005KT 310V010 9999 FEW033CB 14/13 Q1018

More Conditions Fewer Conditions

Pressure 30.06 in
Visibility 6.2 miles
Clouds Few 3300 ft
Dew Point 50 °F
Humidity 82%
Rainfall 0.00 in
Snow Depth Not available.
UV 0 out of 16
Pollen Not available.
Air Quality Not available.
Flu Activity Not available.
METAR EPWR 241930Z 34005KT 310V010 9999 FEW033CB 14/13 Q1018

More Conditions Fewer Conditions

10-Day Weather Forecast

Almanac

Astronomy

Apr. 24, 2014 Rise Set
Actual Time 5:42 AM CEST 8:02 PM CEST
Civil Twilight 5:06 AM CEST 8:38 PM CEST
Nautical Twilight 4:21 AM CEST 9:23 PM CEST
Astronomical Twilight 3:29 AM CEST 10:16 PM CEST
Moon 3:15 AM CEST 2:26 PM CEST
Length of Visible Light 15h 31m
Length of Day
14h 19m
Tomorrow will be 3m 31s longer.
Waning Crescent, 23% of the Moon is Illuminated
Today
Waning Crescent
Apr 29
New
May 6
First Quarter
May 14
Full
May 21
Last Quarter

Today's Extremes

Country Highs Country Lows

Community

  • Sunset at Apalachicola Bay, Florida
    Sunset at Apalachicola Bay, Florida
  • Clouds mov'n in
    Clouds mov'n in
  • Stacked
    Stacked
  • clouds approaching Red Sox Nation
    clouds approaching Red Sox Nation
  • Balance
    Balance

WunderPhotos

Upload Photos

1,704,708 photos uploaded!

Nearby

Snow Depth

Not available.

Coastal Water Temperatures

Place Temperature
No Stations Reporting

Earthquake Activity

City Distance Mag. Time & Date
No recent earthquake activity has been reported nearby.
Minimum magnitude displayed is 2.5.

Nearby Weather Stations

Station Location Temp. Dew Point Humidity Wind Precip. Elev Updated Type
Nove Mesto Nad Metuji 55.2 °F 50 °F 82% North  at  7.0 mph 0.00 in / hr 990 ft 9:52 PM CEST Rapid Fire

Show More Stations Show Fewer Stations

What do you think?

We're not finished. Please let us know what you like, what you don't like, and what you are still missing.